Flight Track Log - Related Links

Times and Time Zones

All times are in EST time to prevent confusion due to time zone crossing. See the AAR8734 flight status page for this flight to view local times or setup timezone preferences in your user account.

Time Position Orientation Groundspeed Altitude Reporting Facility
EST Latitude Longitude Course Direction KTS MPH feet Rate Location/Type
Tue 09:25:00 PM 35.1606 127.5210 346° North  Level Estimated
Tue 09:26:00 PM 35.2408 127.4973 346° North  Level Estimated
Tue 09:27:00 PM 35.3210 127.4736 346° North  Level Estimated
Tue 09:28:00 PM 35.4012 127.4498 346° North  Level Estimated
Tue 09:29:00 PM 35.4813 127.4259 346° North  Level Estimated
Tue 09:30:00 PM 35.5615 127.4020 346° North  Level Estimated
Tue 09:31:00 PM 35.6417 127.3781 346° North  Level Estimated
Tue 09:32:00 PM 35.7218 127.3541 346° North  Level Estimated
Tue 09:33:00 PM 35.8020 127.3301 346° North  Level Estimated
Tue 09:34:00 PM 35.8821 127.3060 346° North  Level Estimated
Tue 09:35:00 PM 35.9623 127.2819 346° North  Level Estimated
Tue 09:36:00 PM 36.0424 127.2577 346° North  Level Estimated
Tue 09:37:00 PM 36.1226 127.2335 346° North  Level Estimated
Tue 09:38:00 PM 36.2027 127.2092 346° North  Level Estimated
Tue 09:39:00 PM 36.2828 127.1849 346° North  Level Estimated
Tue 09:40:00 PM 36.3630 127.1605 346° North  Level Estimated
Tue 09:41:00 PM 36.4431 127.1361 346° North  Level Estimated
Tue 09:42:00 PM 36.5232 127.1116 346° North  Level Estimated
Tue 09:43:00 PM 36.6033 127.0871 346° North  Level Estimated
Tue 09:44:00 PM 36.6834 127.0625 346° North  Level Estimated
Tue 09:45:00 PM 36.7635 127.0379 346° North  Level Estimated
Tue 09:46:00 PM 36.8436 127.0132 346° North  Level Estimated
Tue 09:47:00 PM 36.9237 126.9885 346° North  Level Estimated
Tue 09:48:00 PM 37.0038 126.9637 346° North  Level Estimated
Tue 09:49:00 PM 37.0838 126.9389 346° North  Level Estimated
Tue 09:50:00 PM 37.1639 126.9140 346° North  Level Estimated
Tue 09:51:00 PM 37.2440 126.8890 346° North  Level Estimated
Tue 09:52:00 PM 37.3240 126.8640 346° North  Level Estimated
Tue 09:53:00 PM 37.4041 126.8390 346° North  Level Estimated
Tue 09:54:00 PM 37.4841 126.8139 346° North  Level Estimated
Tue 09:55:00 PM 37.5583 126.7906 346° North  Level Estimated
Tue 09:56:00 PM 37.5583 126.7906 288° West  Level Estimated
Tue 09:57:00 PM 37.5583 126.7906 288° West  Level Estimated
Tue 09:58:00 PM 37.5583 126.7906 288° West  Level Estimated
Tue 09:59:00 PM 37.5583 126.7906 288° West  Level Estimated
Tue 10:00:00 PM 37.5583 126.7906 288° West  Level Estimated
Tue 10:01:00 PM 37.5583 126.7906 288° West  Level Estimated
Tue 10:02:00 PM 37.5583 126.7906 288° West  Level Estimated
Tue 10:03:00 PM 37.5583 126.7906 288° West  Level Estimated
Tue 10:04:00 PM 37.5583 126.7906 288° West  Level Estimated
Tue 10:05:00 PM 37.5583 126.7906 288° West  Level Estimated
Tue 10:06:00 PM 37.5583 126.7906 288° West  Level Estimated
Tue 10:07:00 PM 37.5583 126.7906 288° West  Level Estimated
Tue 10:08:00 PM 37.5583 126.7906 288° West  Level Estimated
Tue 10:09:00 PM 37.5583 126.7906 288° West  Level Estimated
Tue 10:10:00 PM 37.5583 126.7906 288° West  Level Estimated
Tue 10:11:00 PM 37.5583 126.7906 288° West  Level Estimated

Login

Don't have an account? Register now (free) for customized features, flight alerts, and more!